createdAt,value
2023-03-17T00:01:19.812Z,3.72
2023-03-17T00:04:05.736Z,3.95
2023-03-17T00:06:51.665Z,3.50
2023-03-17T00:09:36.761Z,3.80
2023-03-17T00:12:22.105Z,3.55
2023-03-17T00:15:08.601Z,4.55
2023-03-17T00:17:55.855Z,3.58
2023-03-17T00:20:41.100Z,3.97
2023-03-17T00:23:26.403Z,3.88
2023-03-17T00:26:12.375Z,4.47
2023-03-17T00:28:58.984Z,4.47
2023-03-17T00:31:45.652Z,4.45
2023-03-17T00:34:30.970Z,4.05
2023-03-17T00:37:16.108Z,4.22
2023-03-17T00:40:01.519Z,4.60
2023-03-17T00:42:47.359Z,4.07
2023-03-17T00:45:32.902Z,4.80
2023-03-17T00:48:20.732Z,4.88
2023-03-17T00:51:06.112Z,4.68
2023-03-17T00:53:51.753Z,4.10
2023-03-17T00:56:39.534Z,4.40
2023-03-17T00:59:29.664Z,4.32
2023-03-17T01:02:15.128Z,4.57
2023-03-17T01:05:06.294Z,4.22
2023-03-17T01:07:58.854Z,4.30
2023-03-17T01:10:44.479Z,4.60
2023-03-17T01:13:29.803Z,5.25
2023-03-17T01:16:15.688Z,4.32
2023-03-17T01:19:01.126Z,4.22
2023-03-17T01:21:46.411Z,4.40
2023-03-17T01:24:31.848Z,4.93
2023-03-17T01:27:18.782Z,5.00
2023-03-17T01:30:06.308Z,4.82
2023-03-17T01:32:52.136Z,5.13
2023-03-17T01:35:38.232Z,4.95
2023-03-17T01:38:24.486Z,4.43
2023-03-17T01:41:10.412Z,5.00
2023-03-17T01:43:55.982Z,4.70
2023-03-17T01:46:41.073Z,4.90
2023-03-17T01:49:35.597Z,4.63
2023-03-17T01:52:22.903Z,5.57
2023-03-17T01:55:12.019Z,4.70
2023-03-17T01:57:58.485Z,4.60
2023-03-17T02:00:44.061Z,5.40
2023-03-17T02:03:29.748Z,5.13
2023-03-17T02:06:15.974Z,4.88
2023-03-17T02:09:01.702Z,5.15
2023-03-17T02:11:46.953Z,5.22
2023-03-17T02:14:32.112Z,5.55
2023-03-17T02:17:22.036Z,6.00
2023-03-17T02:20:30.700Z,5.82
2023-03-17T02:23:22.210Z,5.80
2023-03-17T02:26:08.381Z,5.88
2023-03-17T02:28:53.895Z,5.55
2023-03-17T02:31:39.280Z,5.60
2023-03-17T02:34:24.771Z,5.75
2023-03-17T02:37:10.324Z,5.43
2023-03-17T02:39:55.668Z,5.93
2023-03-17T02:42:41.242Z,5.60
2023-03-17T02:45:27.349Z,5.60
2023-03-17T02:48:13.063Z,5.40
2023-03-17T02:50:58.316Z,5.28
2023-03-17T02:53:43.667Z,6.07
2023-03-17T02:56:28.819Z,5.35
2023-03-17T02:59:14.452Z,5.88
2023-03-17T03:02:00.555Z,5.70
2023-03-17T03:04:46.254Z,5.55
2023-03-17T03:07:32.593Z,6.07
2023-03-17T03:10:18.831Z,5.57
2023-03-17T03:13:04.554Z,5.55
2023-03-17T03:15:50.056Z,5.68
2023-03-17T03:18:35.955Z,6.13
2023-03-17T03:21:22.017Z,5.05
2023-03-17T03:24:09.097Z,5.70
2023-03-17T03:26:54.096Z,5.68
2023-03-17T03:29:39.404Z,5.72
2023-03-17T03:32:24.931Z,5.40
2023-03-17T03:35:10.510Z,6.03
2023-03-17T03:37:56.575Z,5.82
2023-03-17T03:40:42.240Z,5.40
2023-03-17T03:43:27.948Z,5.35
2023-03-17T03:46:13.540Z,5.22
2023-03-17T03:48:58.893Z,4.93
2023-03-17T03:51:44.428Z,5.43
2023-03-17T03:54:29.836Z,5.07
2023-03-17T03:57:15.349Z,5.20
2023-03-17T04:00:00.682Z,5.28
2023-03-17T04:02:46.779Z,5.43
2023-03-17T04:05:31.971Z,5.30
2023-03-17T04:08:17.487Z,5.63
2023-03-17T04:11:02.617Z,5.72
2023-03-17T04:13:48.212Z,5.47
2023-03-17T04:16:33.391Z,4.80
2023-03-17T04:19:18.898Z,5.35
2023-03-17T04:22:05.575Z,6.18
2023-03-17T04:24:51.334Z,5.43
2023-03-17T04:27:37.382Z,5.78
2023-03-17T04:30:22.426Z,5.05
2023-03-17T04:33:08.350Z,5.57
2023-03-17T04:35:53.895Z,5.30
2023-03-17T04:38:39.227Z,5.40
2023-03-17T04:41:24.784Z,5.72
2023-03-17T04:44:10.021Z,5.35
2023-03-17T04:46:55.502Z,5.13
2023-03-17T04:49:40.749Z,5.60
2023-03-17T04:52:26.120Z,6.05
2023-03-17T04:55:12.020Z,5.18
2023-03-17T04:57:57.301Z,5.07
2023-03-17T05:00:42.817Z,5.40
2023-03-17T05:03:29.999Z,4.88
2023-03-17T05:06:16.280Z,4.47
2023-03-17T05:09:01.547Z,4.82
2023-03-17T05:11:46.870Z,5.20
2023-03-17T05:14:32.234Z,5.15
2023-03-17T05:17:17.586Z,5.65
2023-03-17T05:20:04.210Z,4.60
2023-03-17T05:22:49.550Z,5.10
2023-03-17T05:25:35.583Z,4.75
2023-03-17T05:28:21.824Z,5.53
2023-03-17T05:31:10.287Z,5.22
2023-03-17T05:33:56.491Z,4.03
2023-03-17T05:36:41.813Z,4.57
2023-03-17T05:39:27.910Z,5.50
2023-03-17T05:42:13.794Z,5.05
2023-03-17T05:44:59.169Z,4.90
2023-03-17T05:47:45.625Z,4.80
2023-03-17T05:50:30.944Z,4.82
2023-03-17T05:53:17.348Z,5.13
2023-03-17T05:56:03.791Z,5.03
2023-03-17T05:58:49.211Z,4.40
2023-03-17T06:01:34.398Z,5.15
2023-03-17T06:04:19.759Z,6.00
2023-03-17T06:07:06.074Z,4.72
2023-03-17T06:09:51.396Z,5.05
2023-03-17T06:12:36.988Z,4.70
2023-03-17T06:15:22.152Z,4.90
2023-03-17T06:18:07.527Z,5.13
2023-03-17T06:20:52.871Z,5.45
2023-03-17T06:23:38.299Z,5.90
2023-03-17T06:26:23.566Z,5.72
2023-03-17T06:29:10.131Z,4.43
2023-03-17T06:31:56.076Z,5.03
2023-03-17T06:34:42.649Z,4.55
2023-03-17T06:37:29.682Z,4.40
2023-03-17T06:40:16.122Z,4.72
2023-03-17T06:43:01.908Z,5.28
2023-03-17T06:45:47.129Z,4.97
2023-03-17T06:48:33.888Z,5.13
2023-03-17T06:51:19.179Z,4.30
2023-03-17T06:54:04.447Z,4.57
2023-03-17T06:56:50.243Z,5.03
2023-03-17T06:59:35.480Z,5.38
2023-03-17T07:02:20.876Z,4.80
2023-03-17T07:05:06.608Z,4.60
2023-03-17T07:07:52.088Z,4.82
2023-03-17T07:10:38.118Z,4.47
2023-03-17T07:13:24.530Z,5.10
2023-03-17T07:16:16.736Z,4.70
2023-03-17T07:19:02.065Z,4.65
2023-03-17T07:21:47.263Z,4.72
2023-03-17T07:24:32.762Z,5.28
2023-03-17T07:27:19.078Z,5.18
2023-03-17T07:30:05.882Z,4.95
2023-03-17T07:32:51.141Z,4.93
2023-03-17T07:35:36.367Z,5.20
2023-03-17T07:38:21.869Z,5.13
2023-03-17T07:41:09.863Z,4.95
2023-03-17T07:43:54.866Z,4.60
2023-03-17T07:46:40.224Z,4.45
2023-03-17T07:49:40.525Z,5.10
2023-03-17T07:52:26.766Z,5.25
2023-03-17T07:55:12.458Z,5.25
2023-03-17T07:57:57.980Z,5.30
2023-03-17T08:00:43.021Z,4.60
2023-03-17T08:03:30.387Z,4.93
2023-03-17T08:06:16.002Z,5.68
2023-03-17T08:09:01.541Z,4.65
2023-03-17T08:11:46.765Z,5.45
2023-03-17T08:14:31.798Z,5.38
2023-03-17T08:17:17.401Z,4.50
2023-03-17T08:20:04.725Z,4.90
2023-03-17T08:22:49.980Z,4.97
2023-03-17T08:25:35.396Z,4.57
2023-03-17T08:28:20.983Z,4.70
2023-03-17T08:31:13.574Z,4.72
2023-03-17T08:33:59.242Z,5.03
2023-03-17T08:36:44.311Z,4.72
2023-03-17T08:39:30.440Z,5.13
2023-03-17T08:42:16.184Z,5.05
2023-03-17T08:45:01.617Z,4.78
2023-03-17T08:47:47.682Z,4.22
2023-03-17T08:50:33.254Z,4.28
2023-03-17T08:53:19.235Z,5.22
2023-03-17T08:56:05.378Z,5.05
2023-03-17T08:58:51.781Z,4.78
2023-03-17T09:01:37.565Z,4.60
2023-03-17T09:04:23.382Z,5.18
2023-03-17T09:07:10.291Z,4.55
2023-03-17T09:09:55.703Z,5.70
2023-03-17T09:12:41.426Z,4.57
2023-03-17T09:15:26.611Z,5.20
2023-03-17T09:18:12.863Z,4.35
2023-03-17T09:20:58.053Z,4.93
2023-03-17T09:23:43.504Z,4.55
2023-03-17T09:26:28.873Z,4.75
2023-03-17T09:29:15.203Z,4.20
2023-03-17T09:32:02.289Z,4.32
2023-03-17T09:34:50.291Z,5.65
2023-03-17T09:37:36.892Z,4.10
2023-03-17T09:40:31.670Z,4.40
2023-03-17T09:43:37.118Z,4.97
2023-03-17T09:46:59.853Z,4.80
2023-03-17T09:49:49.236Z,4.95
2023-03-17T09:52:35.040Z,4.60
2023-03-17T09:55:27.098Z,5.15
2023-03-17T09:58:12.555Z,4.55
2023-03-17T10:00:59.846Z,4.15
2023-03-17T10:03:47.144Z,4.20
2023-03-17T10:06:43.602Z,3.85
2023-03-17T10:09:41.786Z,3.67
2023-03-17T10:13:04.881Z,4.20
2023-03-17T10:15:53.010Z,3.85
2023-03-17T10:18:55.197Z,4.45
2023-03-17T10:21:51.384Z,3.45
2023-03-17T10:24:43.539Z,3.70
2023-03-17T10:27:34.132Z,4.50
2023-03-17T10:30:23.371Z,4.13
2023-03-17T10:33:08.930Z,3.90
2023-03-17T10:35:54.789Z,3.80
2023-03-17T10:38:40.185Z,3.92
2023-03-17T10:41:25.926Z,3.72
2023-03-17T10:44:23.495Z,3.67
2023-03-17T10:47:30.337Z,3.80
2023-03-17T10:50:23.324Z,4.28
2023-03-17T10:53:18.325Z,4.00
2023-03-17T10:56:10.375Z,4.00
2023-03-17T10:58:56.814Z,4.30
2023-03-17T11:02:07.633Z,4.85
2023-03-17T11:05:03.329Z,4.30
2023-03-17T11:07:49.521Z,4.50
2023-03-17T11:10:39.155Z,3.88
2023-03-17T11:13:30.460Z,3.50
2023-03-17T11:16:24.085Z,3.70
2023-03-17T11:19:15.475Z,3.72
2023-03-17T11:22:01.327Z,3.22
2023-03-17T11:24:49.790Z,4.68
2023-03-17T11:27:47.146Z,3.05
2023-03-17T11:31:08.354Z,3.67
2023-03-17T11:33:59.959Z,3.45
2023-03-17T11:36:51.888Z,3.97
2023-03-17T11:39:57.947Z,3.70
2023-03-17T11:43:12.514Z,3.45
2023-03-17T11:46:05.187Z,3.83
2023-03-17T11:49:16.220Z,3.90
2023-03-17T11:52:23.289Z,2.75
2023-03-17T11:55:21.485Z,3.45
2023-03-17T11:58:13.458Z,3.17
2023-03-17T12:01:01.496Z,4.55
2023-03-17T12:04:08.115Z,3.88
2023-03-17T12:07:01.215Z,3.92
2023-03-17T12:09:56.885Z,3.22
2023-03-17T12:12:49.963Z,3.13
2023-03-17T12:15:44.077Z,3.65
2023-03-17T12:18:40.310Z,3.60
2023-03-17T12:21:33.960Z,4.05
2023-03-17T12:24:47.170Z,4.07
2023-03-17T12:27:41.265Z,2.90
2023-03-17T12:30:35.640Z,3.17
2023-03-17T12:33:43.671Z,3.47
2023-03-17T12:36:29.259Z,3.42
2023-03-17T12:39:19.929Z,3.05
2023-03-17T12:42:37.786Z,3.65
2023-03-17T12:45:45.940Z,2.88
2023-03-17T12:48:43.149Z,2.80
2023-03-17T12:51:51.002Z,3.45
2023-03-17T12:54:38.376Z,3.85
2023-03-17T12:57:30.685Z,3.20
2023-03-17T13:00:30.251Z,2.80
2023-03-17T13:03:19.007Z,3.13
2023-03-17T13:06:19.014Z,3.38
2023-03-17T13:09:32.389Z,3.03
2023-03-17T13:12:39.634Z,3.40
2023-03-17T13:15:25.033Z,2.50
2023-03-17T13:18:16.594Z,3.55
2023-03-17T13:21:02.175Z,3.25
2023-03-17T13:23:56.981Z,3.65
2023-03-17T13:27:01.693Z,3.17
2023-03-17T13:29:47.457Z,2.78
2023-03-17T13:32:38.556Z,2.80
2023-03-17T13:35:47.709Z,3.72
2023-03-17T13:38:43.381Z,3.22
2023-03-17T13:41:38.264Z,2.45
2023-03-17T13:44:33.409Z,2.80
2023-03-17T13:47:42.144Z,3.40
2023-03-17T13:50:32.575Z,3.35
2023-03-17T13:53:18.028Z,3.15
2023-03-17T13:56:21.793Z,2.63
2023-03-17T13:59:18.209Z,3.60
2023-03-17T14:02:16.513Z,2.90
2023-03-17T14:05:27.109Z,3.25
2023-03-17T14:08:31.795Z,2.80
2023-03-17T14:11:41.256Z,3.88
2023-03-17T14:17:44.509Z,2.72
2023-03-17T14:20:30.177Z,3.28
2023-03-17T14:23:15.425Z,2.83
2023-03-17T14:26:02.791Z,2.90
2023-03-17T14:28:48.103Z,2.75
2023-03-17T14:31:33.620Z,2.55
2023-03-17T14:34:22.114Z,3.72
2023-03-17T14:37:10.787Z,3.88
2023-03-17T14:39:57.837Z,2.88
2023-03-17T14:42:43.379Z,3.00
2023-03-17T14:45:44.646Z,2.90
2023-03-17T14:48:33.150Z,2.97
2023-03-17T14:51:30.783Z,3.47
2023-03-17T14:54:20.152Z,3.60
2023-03-17T14:57:08.107Z,3.17
2023-03-17T15:00:27.448Z,3.20
2023-03-17T15:03:20.162Z,2.72
2023-03-17T15:06:21.810Z,2.55
2023-03-17T15:09:28.227Z,2.83
2023-03-17T15:12:17.849Z,3.45
2023-03-17T15:15:09.052Z,2.83
2023-03-17T15:17:56.748Z,3.50
2023-03-17T15:20:44.284Z,3.00
2023-03-17T15:23:30.532Z,4.95
2023-03-17T15:26:29.516Z,3.55
2023-03-17T15:29:14.874Z,3.50
2023-03-17T15:32:06.853Z,3.22
2023-03-17T15:34:56.295Z,3.15
2023-03-17T15:37:41.957Z,2.67
2023-03-17T15:40:27.053Z,3.45
2023-03-17T15:43:17.232Z,2.72
2023-03-17T15:46:07.343Z,3.10
2023-03-17T15:48:53.415Z,2.58
2023-03-17T15:51:39.027Z,3.30
2023-03-17T15:54:24.249Z,3.17
2023-03-17T15:57:13.227Z,4.15
2023-03-17T15:59:58.859Z,3.10
2023-03-17T16:02:44.644Z,3.55
2023-03-17T16:05:32.443Z,3.78
2023-03-17T16:08:18.055Z,2.85
2023-03-17T16:11:03.328Z,3.25
2023-03-17T16:13:48.796Z,3.45
2023-03-17T16:16:37.730Z,2.92
2023-03-17T16:19:24.780Z,2.92
2023-03-17T16:22:28.779Z,3.92
2023-03-17T16:25:22.151Z,3.38
2023-03-17T16:28:15.993Z,3.30
2023-03-17T16:31:02.002Z,3.80
2023-03-17T16:33:47.422Z,3.63
2023-03-17T16:36:32.849Z,3.88
2023-03-17T16:39:20.492Z,3.90
2023-03-17T16:42:23.084Z,4.72
2023-03-17T16:45:15.552Z,6.28
2023-03-17T16:48:03.442Z,4.72
2023-03-17T16:50:49.141Z,4.00
2023-03-17T16:53:34.707Z,3.53
2023-03-17T16:56:22.288Z,3.65
2023-03-17T16:59:19.535Z,3.80
2023-03-17T17:02:15.265Z,3.40
2023-03-17T17:05:02.112Z,3.60
2023-03-17T17:07:48.140Z,3.65
2023-03-17T17:10:35.030Z,3.58
2023-03-17T17:13:20.451Z,3.67
2023-03-17T17:16:06.582Z,3.95
2023-03-17T17:18:52.504Z,3.67
2023-03-17T17:21:37.704Z,3.90
2023-03-17T17:24:23.255Z,3.97
2023-03-17T17:27:08.410Z,4.43
2023-03-17T17:29:53.852Z,3.67
2023-03-17T17:32:39.518Z,3.85
2023-03-17T17:35:26.910Z,3.88
2023-03-17T17:38:20.417Z,4.03
2023-03-17T17:41:06.887Z,3.85
2023-03-17T17:43:53.689Z,3.63
2023-03-17T17:46:39.185Z,4.43
2023-03-17T17:49:24.430Z,4.00
2023-03-17T17:52:10.508Z,3.88
2023-03-17T17:54:57.070Z,4.63
2023-03-17T17:57:42.724Z,4.65
2023-03-17T18:00:28.098Z,4.00
2023-03-17T18:03:13.478Z,4.80
2023-03-17T18:05:59.080Z,4.85
2023-03-17T18:08:44.614Z,3.85
2023-03-17T18:11:30.143Z,4.32
2023-03-17T18:14:15.535Z,4.22
2023-03-17T18:17:00.800Z,4.82
2023-03-17T18:19:46.107Z,6.60
2023-03-17T18:22:31.255Z,5.63
2023-03-17T18:25:17.992Z,5.93
2023-03-17T18:28:03.586Z,4.53
2023-03-17T18:30:48.793Z,5.05
2023-03-17T18:33:34.065Z,5.10
2023-03-17T18:36:20.615Z,5.07
2023-03-17T18:39:06.228Z,6.10
2023-03-17T18:41:51.586Z,4.75
2023-03-17T18:44:37.815Z,5.00
2023-03-17T18:47:24.002Z,5.05
2023-03-17T18:50:11.935Z,4.88
2023-03-17T18:52:57.929Z,5.70
2023-03-17T18:55:43.249Z,5.65
2023-03-17T18:58:28.753Z,4.78
2023-03-17T19:01:14.374Z,5.72
2023-03-17T19:03:59.489Z,5.10
2023-03-17T19:06:45.254Z,5.40
2023-03-17T19:09:30.390Z,6.05
2023-03-17T19:12:15.797Z,5.28
2023-03-17T19:15:01.694Z,5.85
2023-03-17T19:17:47.725Z,5.43
2023-03-17T19:20:34.416Z,5.53
2023-03-17T19:23:20.097Z,5.85
2023-03-17T19:26:05.889Z,6.28
2023-03-17T19:28:51.383Z,6.90
2023-03-17T19:31:41.494Z,6.40
2023-03-17T19:34:27.277Z,6.10
2023-03-17T19:37:12.698Z,6.50
2023-03-17T19:39:58.463Z,5.07
2023-03-17T19:42:43.912Z,6.40
2023-03-17T19:45:30.116Z,5.80
2023-03-17T19:48:15.756Z,5.63
2023-03-17T19:51:02.034Z,6.60
2023-03-17T19:53:47.373Z,6.63
2023-03-17T19:56:33.632Z,5.60
2023-03-17T19:59:19.717Z,5.80
2023-03-17T20:02:06.098Z,5.50
2023-03-17T20:04:51.345Z,6.07
2023-03-17T20:07:37.118Z,5.95
2023-03-17T20:10:22.672Z,6.57
2023-03-17T20:13:08.217Z,6.45
2023-03-17T20:15:54.358Z,6.05
2023-03-17T20:18:43.950Z,6.53
2023-03-17T20:21:29.609Z,6.28
2023-03-17T20:24:15.104Z,6.80
2023-03-17T20:27:05.108Z,6.63
2023-03-17T20:29:51.264Z,7.10
2023-03-17T20:32:36.687Z,8.02
2023-03-17T20:35:22.019Z,7.72
2023-03-17T20:38:08.191Z,6.78
2023-03-17T20:40:53.560Z,7.32
2023-03-17T20:43:40.220Z,6.72
2023-03-17T20:46:25.910Z,7.32
2023-03-17T20:49:12.210Z,7.15
2023-03-17T20:51:58.363Z,7.50
2023-03-17T20:54:43.603Z,7.28
2023-03-17T20:57:28.832Z,7.70
2023-03-17T21:00:18.295Z,7.25
2023-03-17T21:03:04.051Z,8.27
2023-03-17T21:05:49.042Z,7.15
2023-03-17T21:08:35.244Z,7.18
2023-03-17T21:11:22.911Z,6.80
2023-03-17T21:14:08.954Z,7.18
2023-03-17T21:16:54.999Z,8.05
2023-03-17T21:19:40.563Z,7.82
2023-03-17T21:22:25.961Z,8.65
2023-03-17T21:25:11.499Z,7.07
2023-03-17T21:27:56.588Z,8.00
2023-03-17T21:30:43.812Z,7.43
2023-03-17T21:33:29.277Z,7.80
2023-03-17T21:36:14.650Z,7.50
2023-03-17T21:39:00.785Z,8.68
2023-03-17T21:41:46.807Z,7.72
2023-03-17T21:44:32.406Z,7.65
2023-03-17T21:47:18.692Z,7.40
2023-03-17T21:50:05.052Z,7.75
2023-03-17T21:52:50.403Z,8.45
2023-03-17T21:55:36.196Z,7.75
2023-03-17T21:58:21.986Z,7.60
2023-03-17T22:01:07.469Z,7.78
2023-03-17T22:03:53.555Z,7.90
2023-03-17T22:06:38.871Z,7.38
2023-03-17T22:09:24.069Z,7.20
2023-03-17T22:12:09.953Z,8.05
2023-03-17T22:14:57.961Z,7.80
2023-03-17T22:17:43.452Z,7.45
2023-03-17T22:20:30.159Z,7.80
2023-03-17T22:23:15.784Z,8.10
2023-03-17T22:26:01.031Z,7.95
2023-03-17T22:28:49.345Z,8.32
2023-03-17T22:31:37.340Z,7.68
2023-03-17T22:34:23.298Z,8.07
2023-03-17T22:37:09.505Z,8.30
2023-03-17T22:39:54.812Z,8.90
2023-03-17T22:42:40.053Z,7.78
2023-03-17T22:45:26.299Z,8.25
2023-03-17T22:48:11.380Z,8.45
2023-03-17T22:51:00.817Z,7.35
2023-03-17T22:53:46.475Z,7.93
2023-03-17T22:56:31.540Z,7.80
2023-03-17T22:59:16.788Z,7.75
2023-03-17T23:02:02.110Z,7.93
2023-03-17T23:04:47.525Z,8.35
2023-03-17T23:07:47.852Z,7.97
2023-03-17T23:10:34.922Z,7.93
2023-03-17T23:13:20.957Z,7.47
2023-03-17T23:16:07.847Z,7.70
2023-03-17T23:18:53.330Z,7.10
2023-03-17T23:21:39.333Z,7.90
2023-03-17T23:24:24.542Z,7.13
2023-03-17T23:27:09.662Z,6.85
2023-03-17T23:29:54.852Z,7.85
2023-03-17T23:32:41.641Z,7.22
2023-03-17T23:35:27.712Z,7.90
2023-03-17T23:38:13.450Z,7.03
2023-03-17T23:40:58.558Z,6.97
2023-03-17T23:43:44.833Z,7.00
2023-03-17T23:46:30.161Z,7.47
2023-03-17T23:49:16.138Z,7.28
2023-03-17T23:52:01.744Z,6.88
2023-03-17T23:54:47.404Z,7.93
2023-03-17T23:57:34.633Z,6.65
